Salt Lake City, Utah
Traffic Map
Current Weather Conditions
Salt Lake City, Utah
Overcast Light Snow
Overcast
-3°
Feels Like: -3°
Wind Chill: -3° Ceiling: 3500
Heat Index: -3° Visibility: 6mi
Dew Point: -4° Wind: 3mph
Humidity: 89% Direction: 190° (S)
Pressure: 29.94in Gusts: 0mph
Raw Report DataKSLC 241054Z 19003KT 6SM -SN BR OVC035 M03/M04 A2994 RMK AO2 SLP155 P0000 T10281044
Traffic Incident Summary
Active as of:
Severity:
Category:
InformationThere was an issue retrieving the traffic information for this location. Please try a different location or try again shortly.
Advertisements
Track Severe Weather on mobile